Time;durP1;ratioP1;P1;durP2;ratioP2;P2;SDS_P1;SDS_P2;PMS_P1;PMS_P2;Temp;Humidity;BMP_temperature;BMP_pressure;BME280_temperature;BME280_humidity;BME280_pressure;Samples;Min_cycle;Max_cycle;Signal;HPM_P1;HPM_P2
2020/12/16 00:01:35;;;;;;;48.75;19.15;;;;;;;7.48;93.09;100868.56;5045831;28;20759;-78
2020/12/16 00:04:00;;;;;;;52.38;19.67;;;;;;;7.47;93.47;100866.91;5046690;28;20021;-79
2020/12/16 00:06:26;;;;;;;51.97;18.33;;;;;;;7.48;93.53;100863.13;5050121;28;20387;-78
2020/12/16 00:08:51;;;;;;;48.60;18.33;;;;;;;7.47;93.06;100872.31;5048393;28;20079;-78
2020/12/16 00:11:17;;;;;;;54.38;18.33;;;;;;;7.46;93.48;100867.97;5047177;28;20024;-79
2020/12/16 00:13:42;;;;;;;46.63;17.38;;;;;;;7.46;93.10;100865.28;5047724;28;20390;-79
2020/12/16 00:16:08;;;;;;;52.78;18.42;;;;;;;7.47;92.98;100866.91;5047137;28;20025;-80
2020/12/16 00:18:33;;;;;;;48.47;17.52;;;;;;;7.44;93.34;100865.50;5049605;28;20513;-76
2020/12/16 00:20:59;;;;;;;53.33;18.35;;;;;;;7.44;93.39;100873.66;5047563;28;20044;-78
2020/12/16 00:23:24;;;;;;;50.85;19.25;;;;;;;7.44;93.09;100872.84;5046889;28;20013;-79
2020/12/16 00:25:49;;;;;;;46.72;18.70;;;;;;;7.42;93.32;100875.81;5046398;28;20362;-79
2020/12/16 00:28:15;;;;;;;56.08;19.08;;;;;;;7.43;93.30;100880.16;5046129;28;20494;-79
2020/12/16 00:30:40;;;;;;;51.28;17.00;;;;;;;7.43;93.26;100880.16;5046977;28;20032;-77
2020/12/16 00:33:06;;;;;;;53.95;18.17;;;;;;;7.42;92.97;100875.81;5045567;28;20052;-78
2020/12/16 00:35:31;;;;;;;44.70;18.08;;;;;;;7.42;93.34;100881.25;5081328;28;20021;-78
2020/12/16 00:37:57;;;;;;;49.95;18.02;;;;;;;7.41;93.33;100890.44;5079152;28;20045;-78
2020/12/16 00:40:22;;;;;;;44.00;16.13;;;;;;;7.43;93.29;100899.13;5037172;28;20079;-77
2020/12/16 00:42:48;;;;;;;46.33;16.90;;;;;;;7.42;92.89;100893.94;5055384;28;20044;-78
2020/12/16 00:45:14;;;;;;;44.92;18.17;;;;;;;7.42;93.07;100897.50;5048259;28;20512;-78
2020/12/16 00:47:39;;;;;;;45.65;17.73;;;;;;;7.43;93.18;100898.31;5046966;28;20040;-77
2020/12/16 00:50:06;;;;;;;42.60;17.63;;;;;;;7.42;93.30;100902.94;5080926;28;20036;-79
2020/12/16 00:52:31;;;;;;;45.92;17.77;;;;;;;7.42;93.04;100897.50;5083084;28;20025;-78
2020/12/16 00:54:57;;;;;;;39.88;16.98;;;;;;;7.42;92.93;100902.09;5047906;28;20390;-78
2020/12/16 00:57:22;;;;;;;47.47;18.77;;;;;;;7.41;93.10;100901.28;5050597;28;20028;-76
2020/12/16 00:59:48;;;;;;;47.67;18.23;;;;;;;7.41;92.91;100904.00;5046145;28;20052;-79
2020/12/16 01:02:13;;;;;;;42.17;17.67;;;;;;;7.38;93.18;100904.50;5044139;28;20043;-77
2020/12/16 01:04:38;;;;;;;50.78;17.85;;;;;;;7.36;92.98;100909.34;5045806;28;20096;-78
2020/12/16 01:07:04;;;;;;;45.13;16.50;;;;;;;7.34;93.10;100908.78;5077685;28;20497;-78
2020/12/16 01:09:29;;;;;;;44.92;16.20;;;;;;;7.33;93.19;100920.69;5043899;28;20025;-77
2020/12/16 01:11:55;;;;;;;39.97;15.57;;;;;;;7.33;92.79;100923.41;5045671;28;20037;-77
2020/12/16 01:14:20;;;;;;;43.22;16.10;;;;;;;7.32;92.93;100922.56;5045235;28;20040;-78
2020/12/16 01:16:45;;;;;;;41.83;15.70;;;;;;;7.32;93.05;100924.47;5044258;28;20031;-78
2020/12/16 01:19:11;;;;;;;45.10;16.98;;;;;;;7.33;93.09;100931.53;5047956;28;20112;-78
2020/12/16 01:21:37;;;;;;;41.13;14.20;;;;;;;7.36;93.25;100932.94;5077425;28;20025;-76
2020/12/16 01:24:06;;;;;;;41.25;15.27;;;;;;;7.36;93.37;100941.88;5044630;28;20402;-78
2020/12/16 01:26:41;;;;;;;35.83;13.55;;;;;;;7.38;92.81;100933.50;5048804;28;20444;-76
2020/12/16 01:29:07;;;;;;;36.85;14.27;;;;;;;7.39;92.98;100935.97;5050297;28;20390;-78
2020/12/16 01:31:40;;;;;;;34.25;14.93;;;;;;;7.38;93.03;100939.75;5048058;28;20036;-77
2020/12/16 01:34:05;;;;;;;34.97;14.20;;;;;;;7.39;93.12;100940.56;5045963;28;20382;-79
2020/12/16 01:36:31;;;;;;;35.17;13.60;;;;;;;7.39;93.20;100943.28;5047290;28;20029;-77
2020/12/16 01:38:56;;;;;;;34.30;12.95;;;;;;;7.39;93.15;100941.38;5046302;28;20056;-77
2020/12/16 01:41:22;;;;;;;43.72;14.15;;;;;;;7.39;93.23;100940.56;5045956;28;20039;-77
2020/12/16 01:43:48;;;;;;;44.63;14.57;;;;;;;7.39;93.01;100946.81;5047185;28;20104;-76
2020/12/16 01:46:13;;;;;;;30.50;12.52;;;;;;;7.41;93.22;100950.09;5050085;28;20086;-78
2020/12/16 01:48:38;;;;;;;38.95;14.15;;;;;;;7.41;92.82;100960.94;5050814;28;20048;-77
2020/12/16 01:51:04;;;;;;;44.05;14.88;;;;;;;7.41;93.12;100955.53;5050516;28;20045;-77
2020/12/16 01:53:29;;;;;;;43.85;15.27;;;;;;;7.42;93.22;100957.19;5050167;28;20021;-77
2020/12/16 01:55:55;;;;;;;44.60;15.07;;;;;;;7.42;92.93;100959.06;5064727;28;20051;-77
2020/12/16 01:58:21;;;;;;;45.63;16.08;;;;;;;7.41;92.83;100950.09;5050728;28;20036;-77
2020/12/16 02:00:47;;;;;;;48.28;16.25;;;;;;;7.41;93.07;100950.09;5049596;28;20082;-77
2020/12/16 02:03:13;;;;;;;53.63;17.75;;;;;;;7.38;93.10;100947.88;5048882;28;20425;-77
2020/12/16 02:05:41;;;;;;;48.67;16.85;;;;;;;7.34;92.99;100954.88;5032705;28;20032;-78
2020/12/16 02:08:07;;;;;;;48.65;18.92;;;;;;;7.33;92.82;100958.66;5045606;28;20596;-79
2020/12/16 02:10:32;;;;;;;54.15;19.13;;;;;;;7.33;93.12;100958.66;5044849;28;20051;-78
2020/12/16 02:12:57;;;;;;;47.75;19.45;;;;;;;7.32;93.29;100957.84;5027873;28;20020;-76
2020/12/16 02:15:23;;;;;;;58.75;20.00;;;;;;;7.33;93.10;100953.22;5051162;28;20025;-77
2020/12/16 02:17:48;;;;;;;58.85;19.52;;;;;;;7.35;93.19;100964.66;5051419;28;20021;-78
2020/12/16 02:20:14;;;;;;;52.65;18.83;;;;;;;7.34;93.02;100965.75;5049538;28;20390;-78
2020/12/16 02:22:39;;;;;;;50.70;17.75;;;;;;;7.34;93.31;100961.13;5050307;28;20517;-77
2020/12/16 02:25:10;;;;;;;59.35;18.02;;;;;;;7.32;93.04;100963.25;5049610;28;20091;-77
2020/12/16 02:27:36;;;;;;;68.15;20.13;;;;;;;7.31;92.90;100972.47;5051176;28;20040;-77
2020/12/16 02:30:02;;;;;;;56.83;18.23;;;;;;;7.28;92.84;100969.41;5051051;28;20025;-77
2020/12/16 02:32:28;;;;;;;60.50;19.73;;;;;;;7.27;92.97;100975.91;5052045;28;20462;-77
2020/12/16 02:34:54;;;;;;;54.50;19.15;;;;;;;7.25;93.15;100972.63;5053793;28;20119;-76
2020/12/16 02:37:19;;;;;;;53.70;18.75;;;;;;;7.25;92.93;100980.75;5053272;28;20045;-76
2020/12/16 02:39:45;;;;;;;60.85;18.80;;;;;;;7.27;93.34;100975.91;5055224;28;20036;-78
2020/12/16 02:42:11;;;;;;;51.80;17.33;;;;;;;7.28;92.99;100974.84;5051624;28;20017;-77
2020/12/16 02:44:36;;;;;;;50.90;19.00;;;;;;;7.29;93.05;100969.19;5054599;28;20429;-78
2020/12/16 02:47:02;;;;;;;49.45;17.38;;;;;;;7.30;93.22;100967.28;5051780;28;20378;-77
2020/12/16 02:49:27;;;;;;;52.35;18.48;;;;;;;7.31;93.36;100967.06;5053119;28;20513;-78
2020/12/16 02:51:53;;;;;;;62.28;18.45;;;;;;;7.31;92.99;100966.22;5054177;28;20021;-77
2020/12/16 02:54:19;;;;;;;59.55;17.90;;;;;;;7.31;93.23;100966.22;5037330;28;20104;-77
2020/12/16 02:56:51;;;;;;;56.30;17.77;;;;;;;7.29;93.11;100966.47;5050795;28;20488;-78
2020/12/16 02:59:19;;;;;;;;;;;;;;;7.30;93.18;100976.25;5047006;28;20041;-78
2020/12/16 03:01:47;;;;;;;54.03;15.65;;;;;;;7.31;92.87;100977.91;5077974;28;19923;-77
2020/12/16 03:04:12;;;;;;;53.25;17.27;;;;;;;7.30;92.96;100981.66;5052595;28;20446;-77
2020/12/16 03:06:38;;;;;;;49.28;16.27;;;;;;;7.31;93.42;100972.47;5053200;28;20036;-78
2020/12/16 03:09:03;;;;;;;44.45;15.55;;;;;;;7.32;92.87;100984.16;5053364;28;20033;-79
2020/12/16 03:11:28;;;;;;;51.92;15.35;;;;;;;7.33;93.01;100991.19;5054240;28;20028;-76
2020/12/16 03:13:54;;;;;;;43.92;16.98;;;;;;;7.33;92.97;100993.91;5053546;28;20032;-79
2020/12/16 03:16:19;;;;;;;54.95;16.80;;;;;;;7.36;92.97;100996.13;5054244;28;20036;-78
2020/12/16 03:18:45;;;;;;;48.88;16.17;;;;;;;7.37;93.27;101005.94;5068367;28;20037;-77
2020/12/16 03:21:10;;;;;;;52.08;15.82;;;;;;;7.38;92.72;101004.03;5052845;28;20072;-78
2020/12/16 03:23:36;;;;;;;61.13;17.67;;;;;;;7.38;92.96;101010.28;5052547;28;20024;-77
2020/12/16 03:26:05;;;;;;;58.50;18.30;;;;;;;7.37;93.17;101008.63;5053302;28;20033;-77
2020/12/16 03:28:30;;;;;;;55.65;17.27;;;;;;;7.36;92.91;101017.81;5052432;28;20100;-77
2020/12/16 03:30:55;;;;;;;68.10;18.27;;;;;;;7.34;93.08;101011.84;5050735;28;20481;-77
2020/12/16 03:33:21;;;;;;;58.90;16.95;;;;;;;7.34;92.92;101014.56;5052782;28;20055;-77
2020/12/16 03:35:46;;;;;;;69.78;20.33;;;;;;;7.33;93.22;101037.31;5054493;28;20359;-78
2020/12/16 03:38:12;;;;;;;63.03;19.27;;;;;;;7.34;93.16;101036.25;5053304;28;20426;-76
2020/12/16 03:40:37;;;;;;;64.72;19.25;;;;;;;7.33;93.14;101040.84;5053513;28;20024;-77
2020/12/16 03:43:02;;;;;;;63.50;19.50;;;;;;;7.34;93.02;101037.06;5052003;28;20037;-78
2020/12/16 03:45:28;;;;;;;60.00;17.50;;;;;;;7.37;93.17;101035.75;5053029;28;20033;-78
2020/12/16 03:47:53;;;;;;;63.40;18.25;;;;;;;7.41;93.01;101046.94;5052656;28;20036;-77
2020/12/16 03:50:19;;;;;;;75.68;21.92;;;;;;;7.42;93.32;101030.44;5053178;28;20077;-75
2020/12/16 03:52:44;;;;;;;71.78;19.90;;;;;;;7.45;93.40;101039.97;5052717;28;20025;-77
2020/12/16 03:55:09;;;;;;;68.80;20.38;;;;;;;7.46;93.13;101042.41;5052699;28;20036;-77
2020/12/16 03:57:35;;;;;;;69.85;20.02;;;;;;;7.48;93.00;101042.19;5053288;28;20028;-77
2020/12/16 04:00:00;;;;;;;71.28;20.60;;;;;;;7.49;92.86;101047.34;5051759;28;20032;-77
2020/12/16 04:02:25;;;;;;;72.65;21.45;;;;;;;7.49;93.35;101043.81;5051562;28;20508;-78
2020/12/16 04:04:51;;;;;;;82.60;22.30;;;;;;;7.47;93.03;101041.31;5053261;28;20029;-77
2020/12/16 04:07:16;;;;;;;78.28;22.15;;;;;;;7.45;93.25;101053.53;5053112;28;20025;-78
2020/12/16 04:09:42;;;;;;;69.63;22.52;;;;;;;7.44;93.20;101051.84;5052517;28;20482;-76
2020/12/16 04:12:07;;;;;;;80.25;23.05;;;;;;;7.42;93.11;101057.53;5050724;28;20087;-78
2020/12/16 04:14:32;;;;;;;86.68;22.60;;;;;;;7.41;92.96;101053.16;5053704;28;20385;-78
2020/12/16 04:16:58;;;;;;;75.60;20.88;;;;;;;7.41;93.00;101064.03;5050083;28;20028;-77
2020/12/16 04:19:23;;;;;;;77.70;21.08;;;;;;;7.39;93.01;101074.28;5050442;28;20040;-77
2020/12/16 04:21:53;;;;;;;75.50;19.50;;;;;;;7.39;93.20;101065.34;5051880;28;20029;-77
2020/12/16 04:24:19;;;;;;;68.88;19.70;;;;;;;7.39;93.15;101074.28;5035641;28;20078;-77
2020/12/16 04:26:44;;;;;;;70.75;22.73;;;;;;;7.39;93.15;101068.88;5051963;28;20478;-78
2020/12/16 04:29:10;;;;;;;72.68;21.85;;;;;;;7.39;93.15;101071.56;5053488;28;20032;-76
2020/12/16 04:31:35;;;;;;;80.47;22.67;;;;;;;7.39;93.26;101070.75;5050214;28;20021;-79
2020/12/16 04:34:00;;;;;;;67.45;19.40;;;;;;;7.40;93.44;101088.69;5053688;28;20033;-78
2020/12/16 04:36:26;;;;;;;82.03;21.90;;;;;;;7.40;92.89;101077.84;5051680;28;20025;-77
2020/12/16 04:38:52;;;;;;;64.20;19.33;;;;;;;7.39;93.26;101093.28;5052216;28;20525;-79
2020/12/16 04:41:17;;;;;;;68.10;17.35;;;;;;;7.39;93.06;101093.28;5050322;28;20021;-78
2020/12/16 04:43:43;;;;;;;73.53;19.77;;;;;;;7.40;93.29;101089.50;5053707;28;20383;-78
2020/12/16 04:46:09;;;;;;;63.25;16.42;;;;;;;7.43;93.02;101094.44;5051415;28;20039;-78
2020/12/16 04:48:35;;;;;;;64.53;17.85;;;;;;;7.42;93.09;101105.53;5052196;28;20016;-78
2020/12/16 04:51:00;;;;;;;68.00;18.52;;;;;;;7.41;93.15;101102.00;5050678;28;20029;-78
2020/12/16 04:53:25;;;;;;;73.93;18.98;;;;;;;7.42;93.16;101109.09;5050953;28;20024;-78
2020/12/16 04:55:51;;;;;;;59.28;18.38;;;;;;;7.42;93.16;101109.09;5034195;28;20033;-78
2020/12/16 04:58:16;;;;;;;72.22;19.85;;;;;;;7.44;93.51;101103.41;5035249;28;20077;-77
2020/12/16 05:00:42;;;;;;;81.38;19.90;;;;;;;7.44;93.28;101111.53;5051756;28;20025;-77
2020/12/16 05:03:08;;;;;;;84.55;20.70;;;;;;;7.44;93.49;101095.25;5048764;28;20025;-79
2020/12/16 05:05:34;;;;;;;71.13;21.10;;;;;;;7.43;93.24;101101.78;5053699;28;20165;-78
2020/12/16 05:08:15;;;;;;;69.97;21.23;;;;;;;7.41;93.15;101104.72;5051616;28;20466;-78
2020/12/16 05:10:42;;;;;;;83.45;21.75;;;;;;;7.41;93.16;101112.84;5031425;28;20020;-78
2020/12/16 05:13:18;;;;;;;74.78;20.63;;;;;;;7.41;93.60;101115.56;5052657;28;20116;-78
2020/12/16 05:15:46;;;;;;;74.65;21.10;;;;;;;7.43;93.30;101110.72;5049552;28;20039;-77
2020/12/16 05:18:22;;;;;;;73.50;20.52;;;;;;;7.44;93.37;101112.34;5050288;28;20055;-77
2020/12/16 05:20:47;;;;;;;67.68;20.38;;;;;;;7.47;93.35;101116.47;5050721;28;20165;-78
2020/12/16 05:23:13;;;;;;;70.25;22.67;;;;;;;7.47;93.21;101106.44;5050759;28;20494;-77
2020/12/16 05:25:39;;;;;;;63.88;20.33;;;;;;;7.46;93.12;101109.41;5052760;28;20027;-78
2020/12/16 05:28:05;;;;;;;57.63;19.23;;;;;;;7.43;93.38;101121.56;5049119;28;20052;-78
2020/12/16 05:30:32;;;;;;;80.65;20.40;;;;;;;7.42;93.01;101117.22;5052161;28;20051;-78
2020/12/16 05:33:00;;;;;;;63.80;19.30;;;;;;;7.43;93.33;101129.72;5050225;28;20524;-78
2020/12/16 05:35:35;;;;;;;72.40;20.65;;;;;;;7.43;93.43;101135.13;5046869;28;20473;-80
2020/12/16 05:38:08;;;;;;;65.45;19.45;;;;;;;7.45;93.11;101149.28;5051109;28;20047;-78
2020/12/16 05:40:38;;;;;;;65.43;19.55;;;;;;;7.46;93.26;101148.22;5033313;28;20102;-76
2020/12/16 05:43:04;;;;;;;62.50;18.52;;;;;;;7.46;93.19;101164.47;5067460;28;20489;-78
2020/12/16 05:45:30;;;;;;;59.00;18.13;;;;;;;7.47;93.66;101171.53;5049323;28;20033;-77
2020/12/16 05:48:03;;;;;;;71.95;19.83;;;;;;;7.46;93.31;101161.78;5082536;28;20017;-77
2020/12/16 05:50:40;;;;;;;59.95;18.25;;;;;;;7.48;93.37;101170.50;5049949;28;20025;-78
2020/12/16 05:53:16;;;;;;;67.40;20.63;;;;;;;7.48;93.39;101164.25;5047226;28;20502;-78
2020/12/16 05:55:42;;;;;;;63.20;18.85;;;;;;;7.45;93.10;101162.84;5049284;28;20029;-79
2020/12/16 05:58:09;;;;;;;63.20;19.85;;;;;;;7.43;93.05;101170.41;5081136;28;20082;-78
2020/12/16 06:00:56;;;;;;;68.75;20.35;;;;;;;7.38;93.29;101159.44;5049127;28;20296;-78
2020/12/16 06:03:22;;;;;;;62.28;19.40;;;;;;;7.38;93.27;101170.31;5049762;28;20024;-78
2020/12/16 06:05:49;;;;;;;70.63;20.60;;;;;;;7.36;93.38;101169.72;5046180;28;20044;-78
2020/12/16 06:08:15;;;;;;;68.63;20.83;;;;;;;7.36;93.49;101175.13;5041492;28;20032;-78
2020/12/16 06:10:42;;;;;;;73.65;20.85;;;;;;;7.34;93.21;101174.59;5043513;28;20031;-79
2020/12/16 06:13:09;;;;;;;67.85;20.17;;;;;;;7.32;93.39;101174.81;5038095;28;20024;-78
2020/12/16 06:15:45;;;;;;;70.90;21.25;;;;;;;7.31;93.40;101172.31;5074471;28;20125;-79
2020/12/16 06:18:10;;;;;;;75.20;21.23;;;;;;;7.32;93.34;101174.00;5041382;28;20501;-79
2020/12/16 06:20:36;;;;;;;66.32;19.30;;;;;;;7.33;93.19;101172.91;5079220;28;20037;-80
2020/12/16 06:23:02;;;;;;;78.38;20.13;;;;;;;7.33;93.19;101186.47;5041140;28;20025;-80
2020/12/16 06:25:27;;;;;;;72.53;18.42;;;;;;;7.33;93.29;101187.28;5065527;28;20044;-79
2020/12/16 06:27:52;;;;;;;68.47;19.40;;;;;;;7.34;93.42;101193.56;5047629;28;20433;-79
2020/12/16 06:30:30;;;;;;;56.50;18.80;;;;;;;7.35;93.20;101189.78;5045387;28;20036;-78
2020/12/16 06:33:06;;;;;;;56.65;17.90;;;;;;;7.35;93.09;101206.06;5062918;28;20048;-79
2020/12/16 06:35:32;;;;;;;67.00;19.10;;;;;;;7.36;93.41;101213.13;5047708;28;20021;-81
2020/12/16 06:38:20;;;;;;;56.75;17.27;;;;;;;7.37;93.17;101213.97;5047256;28;20490;-79
2020/12/16 06:40:47;;;;;;;59.05;16.73;;;;;;;7.39;93.08;101217.22;5045305;28;20179;-80
2020/12/16 06:43:31;;;;;;;53.50;15.70;;;;;;;7.39;93.05;101204.50;5049239;28;20056;-80
2020/12/16 06:45:59;;;;;;;52.88;16.50;;;;;;;7.41;93.03;101205.06;5047814;28;20040;-78
2020/12/16 06:48:37;;;;;;;46.80;14.30;;;;;;;7.40;93.05;101208.88;5049240;28;20039;-79
2020/12/16 06:51:22;;;;;;;51.05;14.73;;;;;;;7.41;92.84;101217.81;5042949;28;20081;-80
2020/12/16 06:53:48;;;;;;;39.17;12.45;;;;;;;7.41;93.05;101218.63;5048407;28;20143;-79
2020/12/16 06:56:20;;;;;;;44.22;13.02;;;;;;;7.41;93.44;101205.06;5048468;28;20036;-79
2020/12/16 06:58:45;;;;;;;43.35;12.90;;;;;;;7.39;93.25;101201.78;5046385;28;20052;-79
2020/12/16 07:01:16;;;;;;;36.42;12.35;;;;;;;7.36;92.92;101186.00;5043572;28;20044;-79
2020/12/16 07:03:41;;;;;;;36.63;11.75;;;;;;;7.33;92.94;101197.31;5041474;28;20036;-78
2020/12/16 07:06:11;;;;;;;48.05;12.63;;;;;;;7.30;93.20;101184.25;5033478;28;20381;-79
2020/12/16 07:08:37;;;;;;;52.03;12.88;;;;;;;7.27;93.33;101174.72;5048568;28;20057;-79
2020/12/16 07:11:02;;;;;;;34.03;11.05;;;;;;;7.24;93.21;101177.09;5048626;28;20100;-80
2020/12/16 07:13:32;;;;;;;44.33;10.13;;;;;;;7.22;93.20;101184.63;5060697;28;20027;-79
2020/12/16 07:16:10;;;;;;;44.38;8.98;;;;;;;7.20;92.85;101184.91;5029502;28;20028;-79
2020/12/16 07:18:38;;;;;;;34.88;9.35;;;;;;;7.21;92.89;101183.00;5049969;28;20040;-79
2020/12/16 07:21:06;;;;;;;32.10;9.05;;;;;;;7.22;93.30;101203.63;5053944;28;20105;-81
2020/12/16 07:24:03;;;;;;;28.10;9.23;;;;;;;7.23;92.90;101210.69;5053320;28;20033;-80
2020/12/16 07:26:36;;;;;;;21.55;7.32;;;;;;;7.25;93.26;101228.34;5048046;28;20411;-78
2020/12/16 07:29:30;;;;;;;25.92;8.27;;;;;;;7.28;92.93;101235.19;5050862;28;20029;-79
2020/12/16 07:32:06;;;;;;;23.25;8.77;;;;;;;7.30;93.02;101241.22;5045728;28;20075;-77
2020/12/16 07:34:58;;;;;;;31.15;9.43;;;;;;;7.32;93.10;101244.50;5052859;28;20035;-79
2020/12/16 07:37:25;;;;;;;28.63;8.25;;;;;;;7.34;93.14;101237.78;5047422;28;20056;-78
2020/12/16 07:40:02;;;;;;;30.38;8.95;;;;;;;7.35;92.57;101238.59;5052165;28;20021;-76
2020/12/16 07:42:29;;;;;;;35.20;9.15;;;;;;;7.38;93.10;101243.53;5051681;28;20051;-79
2020/12/16 07:44:55;;;;;;;28.52;8.70;;;;;;;7.40;92.70;101240.59;5049503;28;20124;-79
2020/12/16 07:47:20;;;;;;;37.67;10.13;;;;;;;7.42;92.85;101257.44;5076617;28;20088;-81
2020/12/16 07:49:46;;;;;;;32.42;10.40;;;;;;;7.43;92.93;101256.38;5043980;28;20025;-81
2020/12/16 07:52:12;;;;;;;33.22;9.68;;;;;;;7.45;93.10;101254.28;5050214;28;20355;-74
2020/12/16 07:54:37;;;;;;;36.10;8.93;;;;;;;7.46;92.82;101253.19;5045771;28;20463;-75
2020/12/16 07:57:03;;;;;;;29.13;9.07;;;;;;;7.45;93.08;101246.13;5031627;28;20044;-75
2020/12/16 07:59:30;;;;;;;42.55;9.50;;;;;;;7.44;92.55;101242.56;5049656;28;20509;-74
2020/12/16 08:02:10;;;;;;;33.15;9.35;;;;;;;7.42;92.73;101239.28;5031891;28;20021;-74
2020/12/16 08:04:35;;;;;;;29.92;7.80;;;;;;;7.43;93.11;101246.34;5034522;28;20025;-74
2020/12/16 08:07:17;;;;;;;32.90;8.60;;;;;;;7.43;93.06;101254.50;5052427;28;20031;-79
2020/12/16 08:10:03;;;;;;;31.58;7.82;;;;;;;7.44;92.84;101253.41;5051364;28;20029;-80
2020/12/16 08:12:31;;;;;;;24.40;7.10;;;;;;;7.45;92.98;101248.84;5053477;28;20036;-80
2020/12/16 08:15:15;;;;;;;32.75;6.63;;;;;;;7.46;92.83;101255.91;5051344;28;20025;-79
2020/12/16 08:17:41;;;;;;;23.48;7.10;;;;;;;7.44;92.88;101253.41;5068882;28;20025;-78
2020/12/16 08:20:40;;;;;;;33.72;7.47;;;;;;;7.43;92.54;101256.38;5050253;28;20500;-78
2020/12/16 08:23:05;;;;;;;34.33;7.97;;;;;;;7.41;92.76;101264.75;5052043;28;20041;-79
2020/12/16 08:25:31;;;;;;;34.45;8.20;;;;;;;7.38;92.77;101267.13;5051381;28;20091;-79
2020/12/16 08:27:56;;;;;;;37.88;8.63;;;;;;;7.37;92.90;101279.88;5033726;28;20037;-79
2020/12/16 08:30:23;;;;;;;29.77;7.50;;;;;;;7.37;92.55;101279.88;5052672;28;20058;-79
2020/12/16 08:33:03;;;;;;;29.58;9.02;;;;;;;7.37;92.98;101288.00;5053306;28;20105;-79
2020/12/16 08:35:30;;;;;;;36.08;8.63;;;;;;;7.37;92.90;101285.31;5052882;28;20036;-79
2020/12/16 08:38:05;;;;;;;40.08;7.93;;;;;;;7.38;92.63;101286.94;5034671;28;20394;-79
2020/12/16 08:40:30;;;;;;;25.58;6.78;;;;;;;7.40;92.75;101301.09;5051987;28;20025;-78
2020/12/16 08:43:10;;;;;;;35.47;7.95;;;;;;;7.42;92.90;101304.41;5053202;28;20027;-79
2020/12/16 08:45:35;;;;;;;30.00;8.00;;;;;;;7.42;92.87;101304.41;5057556;28;20037;-79
2020/12/16 08:48:04;;;;;;;40.20;8.07;;;;;;;7.40;93.00;101301.09;5048771;28;20025;-79
2020/12/16 08:50:29;;;;;;;38.15;9.18;;;;;;;7.40;92.64;101300.28;5052648;28;20025;-79
2020/12/16 08:52:54;;;;;;;32.70;7.78;;;;;;;7.39;92.64;101313.00;5051632;28;20397;-80
2020/12/16 08:55:20;;;;;;;30.92;8.38;;;;;;;7.37;92.73;101307.00;5014681;28;20033;-80
2020/12/16 08:57:53;;;;;;;37.20;8.60;;;;;;;7.37;93.00;101312.44;5043374;28;20081;-80
2020/12/16 09:00:18;;;;;;;32.78;6.78;;;;;;;7.35;92.77;101317.25;5048391;28;20028;-79
2020/12/16 09:02:49;;;;;;;42.67;9.15;;;;;;;7.33;93.05;101328.34;5050116;28;20029;-81
2020/12/16 09:05:14;;;;;;;46.55;8.25;;;;;;;7.31;92.71;101335.06;5065819;28;20035;-78
2020/12/16 09:07:40;;;;;;;34.63;7.70;;;;;;;7.32;92.94;101334.00;5053027;28;20633;-77
2020/12/16 09:10:08;;;;;;;35.92;6.75;;;;;;;7.33;93.12;101332.94;5049405;28;20032;-78
2020/12/16 09:12:33;;;;;;;81.15;11.20;;;;;;;7.33;93.13;101339.19;5045784;28;20028;-78
2020/12/16 09:15:02;;;;;;;154.82;19.75;;;;;;;7.28;93.03;101340.97;5049944;28;20025;-78
2020/12/16 09:17:29;;;;;;;373.23;37.90;;;;;;;7.25;92.98;101346.88;5049710;28;20032;-79
2020/12/16 09:19:54;;;;;;;448.08;42.42;;;;;;;7.22;93.03;101359.00;5042840;28;20027;-78
2020/12/16 09:22:27;;;;;;;267.65;29.45;;;;;;;7.18;92.81;101365.16;5051541;28;20036;-78
2020/12/16 09:24:53;;;;;;;383.30;35.50;;;;;;;7.15;93.08;101371.03;5051349;28;20470;-79
2020/12/16 09:27:19;;;;;;;442.77;42.22;;;;;;;7.11;92.85;101384.25;5046111;28;20028;-79
2020/12/16 09:29:45;;;;;;;379.73;37.20;;;;;;;7.07;93.13;101386.63;5051400;28;20406;-77
2020/12/16 09:32:23;;;;;;;415.25;40.60;;;;;;;7.02;93.31;101391.91;5049337;28;20036;-80
2020/12/16 09:34:51;;;;;;;313.92;29.65;;;;;;;7.00;93.20;101398.63;5049628;28;20032;-79
2020/12/16 09:37:18;;;;;;;400.02;37.47;;;;;;;6.96;93.00;101406.41;5049239;28;20053;-78
2020/12/16 09:39:45;;;;;;;289.45;27.40;;;;;;;6.91;93.04;101398.16;5048177;28;20368;-78
2020/12/16 09:42:12;;;;;;;348.85;32.30;;;;;;;6.88;93.38;101395.94;5034233;28;20021;-78
2020/12/16 09:44:37;;;;;;;266.35;22.10;;;;;;;6.85;92.98;101409.94;5030058;28;20021;-77
2020/12/16 09:47:19;;;;;;;314.52;29.70;;;;;;;6.78;93.11;101406.50;5040997;28;20546;-78
2020/12/16 09:49:46;;;;;;;286.58;28.00;;;;;;;6.78;93.38;101414.63;5060895;28;20055;-80
2020/12/16 09:52:31;;;;;;;275.45;25.48;;;;;;;6.75;93.13;101404.28;5032686;28;20402;-78
2020/12/16 09:54:57;;;;;;;303.88;29.38;;;;;;;6.71;93.36;101412.06;5048232;28;20036;-78
2020/12/16 09:57:23;;;;;;;334.85;29.92;;;;;;;6.67;93.05;101422.50;5048586;28;20470;-79
2020/12/16 09:59:49;;;;;;;362.45;30.98;;;;;;;6.63;93.18;101437.59;5051042;28;20031;-78
2020/12/16 10:02:16;;;;;;;354.75;33.03;;;;;;;6.62;93.35;101435.91;5049661;28;20029;-78
2020/12/16 10:04:41;;;;;;;332.15;33.78;;;;;;;6.63;93.20;101429.47;5030715;28;20060;-76
2020/12/16 10:07:07;;;;;;;412.50;38.17;;;;;;;6.63;93.41;101434.06;5073388;28;20033;-77
2020/12/16 10:09:35;;;;;;;307.00;28.13;;;;;;;6.61;93.66;101437.00;5041108;28;20029;-77
2020/12/16 10:12:04;;;;;;;379.52;33.95;;;;;;;6.61;93.46;101442.41;5041568;28;20067;-76
2020/12/16 10:14:30;;;;;;;419.23;39.10;;;;;;;6.62;93.69;101446.75;5043393;28;20028;-76
2020/12/16 10:16:55;;;;;;;341.00;31.65;;;;;;;6.62;93.53;101457.59;5047386;28;20426;-76
2020/12/16 10:19:21;;;;;;;283.42;22.30;;;;;;;6.57;93.73;101460.16;5033258;28;20017;-77
2020/12/16 10:21:49;;;;;;;397.20;36.80;;;;;;;6.55;93.89;101447.94;5044195;28;20024;-77
2020/12/16 10:24:16;;;;;;;366.00;32.60;;;;;;;6.59;93.73;101457.25;5047620;28;20032;-77
2020/12/16 10:26:45;;;;;;;384.08;33.50;;;;;;;6.59;93.66;101466.19;5072787;28;20056;-77
2020/12/16 10:29:11;;;;;;;389.85;34.38;;;;;;;6.56;93.64;101468.53;5079248;28;20039;-78
2020/12/16 10:31:36;;;;;;;369.55;37.38;;;;;;;6.56;93.68;101476.66;5045666;28;20032;-77
2020/12/16 10:34:01;;;;;;;325.92;31.85;;;;;;;6.57;93.67;101468.28;5048932;28;20021;-77
2020/12/16 10:36:29;;;;;;;308.05;27.55;;;;;;;6.55;93.80;101470.44;5042970;28;20021;-78
2020/12/16 10:38:55;;;;;;;253.13;24.95;;;;;;;6.55;93.87;101477.75;5042427;28;20045;-77
2020/12/16 10:41:20;;;;;;;158.40;18.17;;;;;;;6.55;93.53;101473.13;5047094;28;20027;-77
2020/12/16 10:43:46;;;;;;;169.45;18.55;;;;;;;6.58;94.01;101469.13;5042599;28;20013;-78
2020/12/16 10:46:11;;;;;;;372.70;36.85;;;;;;;6.60;93.86;101480.56;5042386;28;20362;-78
2020/12/16 10:48:36;;;;;;;103.07;17.67;;;;;;;6.62;93.67;101473.03;5041492;28;20176;-78
2020/12/16 10:51:02;;;;;;;152.35;21.20;;;;;;;6.67;93.73;101481.28;5040973;28;20028;-78
2020/12/16 10:53:28;;;;;;;123.43;19.08;;;;;;;6.74;93.85;101481.19;5058663;28;20029;-77
2020/12/16 10:55:54;;;;;;;96.10;17.65;;;;;;;6.78;93.92;101471.56;5051671;28;20032;-78
2020/12/16 10:58:19;;;;;;;90.10;18.33;;;;;;;6.85;93.95;101477.72;5050565;28;20470;-77
2020/12/16 11:00:45;;;;;;;88.65;17.90;;;;;;;6.88;94.02;101482.66;5053305;28;20110;-78
2020/12/16 11:03:10;;;;;;;89.97;16.38;;;;;;;6.93;93.99;101482.78;5047459;28;20055;-77
2020/12/16 11:05:36;;;;;;;70.78;14.25;;;;;;;6.96;93.96;101485.03;5053356;28;20020;-77
2020/12/16 11:08:02;;;;;;;54.47;14.60;;;;;;;6.98;93.71;101485.59;5050393;28;20021;-77
2020/12/16 11:10:27;;;;;;;52.70;13.13;;;;;;;7.03;93.71;101493.88;5085810;28;20040;-78
2020/12/16 11:12:52;;;;;;;47.53;11.27;;;;;;;7.07;93.88;101492.38;5050788;28;20032;-77
2020/12/16 11:15:18;;;;;;;49.63;11.48;;;;;;;7.10;93.87;101485.66;5053644;28;20029;-77
2020/12/16 11:17:43;;;;;;;39.25;10.07;;;;;;;7.16;94.05;101495.56;5054294;28;20033;-77
2020/12/16 11:20:09;;;;;;;59.28;11.27;;;;;;;7.20;93.86;101487.78;5053656;28;20036;-78